Broad Brook, Connecticut
Current Conditions -  °F | °C
As of 8:51 AM on Thursday 27 Nov 2014 (Local Time) from KBDL Reporting Station
Broken Clouds Broken Clouds  
Wind Chill: 33°   Ceiling: 7500
Heat Index: 33°   Visibility: 10mi
Dew Point: 27°   Wind: 0mph
Humidity: 78%   Direction: NA
Pressure: 29.96"   Gusts: NA
Location:  41.91°N, 72.54°W
Report Text: KBDL 271351Z 00000KT 10SM FEW010 SCT030 BKN075 01/M03 A2996 RMK AO2 SLP145 T00061028 $
Loading
Personal Weather Stations






























Interactive Weather Map New forecast layout! Learn more

10-Day Weather Forecast

Advertisements
Track Severe Weather on mobile